createdAt,value
2019-02-12T00:00:06.863Z,16.20
2019-02-12T00:01:07.069Z,16.20
2019-02-12T00:03:06.847Z,22.40
2019-02-12T00:04:07.038Z,18.10
2019-02-12T00:05:07.255Z,19.20
2019-02-12T00:07:06.841Z,24.30
2019-02-12T00:08:07.021Z,19.80
2019-02-12T00:09:07.546Z,16.70
2019-02-12T00:10:07.033Z,20.00
2019-02-12T00:11:06.781Z,16.40
2019-02-12T00:12:07.012Z,15.70
2019-02-12T00:13:07.401Z,19.20
2019-02-12T00:14:06.788Z,14.50
2019-02-12T00:17:06.964Z,20.40
2019-02-12T00:18:06.784Z,19.00
2019-02-12T00:19:06.949Z,14.00
2019-02-12T00:20:06.947Z,16.30
2019-02-12T00:21:09.239Z,15.90
2019-02-12T00:22:06.948Z,16.90
2019-02-12T00:23:06.720Z,12.20
2019-02-12T00:24:06.719Z,17.10
2019-02-12T00:25:06.765Z,16.10
2019-02-12T00:28:06.701Z,16.30
2019-02-12T00:29:06.684Z,19.80
2019-02-12T00:30:07.091Z,15.40
2019-02-12T00:31:06.674Z,20.20
2019-02-12T00:33:07.176Z,14.90
2019-02-12T00:34:06.866Z,15.80
2019-02-12T00:35:06.652Z,14.90
2019-02-12T00:36:07.048Z,19.50
2019-02-12T00:37:06.950Z,13.90
2019-02-12T00:38:06.629Z,17.40
2019-02-12T00:40:06.838Z,17.70
2019-02-12T00:41:06.825Z,15.20
2019-02-12T00:42:06.819Z,17.90
2019-02-12T00:43:06.786Z,14.40
2019-02-12T00:44:06.988Z,18.90
2019-02-12T00:45:06.596Z,15.40
2019-02-12T00:46:06.982Z,17.10
2019-02-12T00:47:06.570Z,15.20
2019-02-12T00:48:06.868Z,13.50
2019-02-12T00:50:06.955Z,18.40
2019-02-12T00:51:06.756Z,16.70
2019-02-12T00:52:06.756Z,19.20
2019-02-12T00:53:06.936Z,14.90
2019-02-12T00:54:06.743Z,17.30
2019-02-12T00:55:06.720Z,19.80
2019-02-12T00:56:06.523Z,20.40
2019-02-12T00:57:06.714Z,16.90
2019-02-12T00:58:06.505Z,18.30
2019-02-12T00:59:06.499Z,14.00
2019-02-12T01:00:06.806Z,13.60
2019-02-12T01:01:06.802Z,18.40
2019-02-12T01:02:06.477Z,19.00
2019-02-12T01:03:06.874Z,18.80
2019-02-12T01:04:06.471Z,13.40
2019-02-12T01:06:06.662Z,14.30
2019-02-12T01:07:06.655Z,17.00
2019-02-12T01:08:06.750Z,14.10
2019-02-12T01:09:06.462Z,12.10
2019-02-12T01:12:06.402Z,13.00
2019-02-12T01:14:06.413Z,13.40
2019-02-12T01:15:06.606Z,11.20
2019-02-12T01:16:06.391Z,12.60
2019-02-12T01:17:06.408Z,12.00
2019-02-12T01:18:06.601Z,11.00
2019-02-12T01:20:06.370Z,9.30
2019-02-12T01:21:06.372Z,11.40
2019-02-12T01:22:06.771Z,10.30
2019-02-12T01:23:06.369Z,16.30
2019-02-12T01:25:06.537Z,18.00
2019-02-12T01:26:06.544Z,12.90
2019-02-12T01:27:06.841Z,14.10
2019-02-12T01:30:06.330Z,17.60
2019-02-12T01:31:07.210Z,20.80
2019-02-12T01:32:06.316Z,18.00
2019-02-12T01:33:06.302Z,22.40
2019-02-12T01:34:06.304Z,17.80
2019-02-12T01:35:06.480Z,18.70
2019-02-12T01:36:06.495Z,21.70
2019-02-12T01:38:06.273Z,15.40
2019-02-12T01:39:06.266Z,17.90
2019-02-12T01:42:06.756Z,17.80
2019-02-12T01:43:06.672Z,15.20
2019-02-12T01:45:06.218Z,16.90
2019-02-12T01:46:06.215Z,18.30
2019-02-12T01:47:06.208Z,20.10
2019-02-12T01:48:06.419Z,15.10
2019-02-12T01:49:06.413Z,15.90
2019-02-12T01:50:06.399Z,15.30
2019-02-12T01:51:06.403Z,15.70
2019-02-12T01:52:06.174Z,17.20
2019-02-12T01:53:06.245Z,15.00
2019-02-12T01:54:06.157Z,14.10
2019-02-12T01:55:06.153Z,17.30
2019-02-12T01:56:06.346Z,16.10
2019-02-12T01:57:06.141Z,19.70
2019-02-12T01:58:06.552Z,15.40
2019-02-12T01:59:06.342Z,15.40
2019-02-12T02:00:06.447Z,12.30
2019-02-12T02:03:06.124Z,11.10
2019-02-12T02:04:06.492Z,13.70
2019-02-12T02:05:07.010Z,12.10
2019-02-12T02:06:06.307Z,14.10
2019-02-12T02:07:06.111Z,15.00
2019-02-12T02:08:06.110Z,16.90
2019-02-12T02:10:06.061Z,13.80
2019-02-12T02:11:06.061Z,13.80
2019-02-12T02:12:06.268Z,12.50
2019-02-12T02:13:06.043Z,13.80
2019-02-12T02:14:06.747Z,11.10
2019-02-12T02:15:06.273Z,13.20
2019-02-12T02:16:06.024Z,13.70
2019-02-12T02:17:06.007Z,16.70
2019-02-12T02:19:06.030Z,15.90
2019-02-12T02:20:06.443Z,15.10
2019-02-12T02:21:06.224Z,16.40
2019-02-12T02:22:06.009Z,18.50
2019-02-12T02:23:05.991Z,13.90
2019-02-12T02:24:06.013Z,14.80
2019-02-12T02:25:06.192Z,15.10
2019-02-12T02:27:06.162Z,17.80
2019-02-12T02:28:06.165Z,17.80
2019-02-12T02:30:05.950Z,17.60
2019-02-12T02:31:06.333Z,12.70
2019-02-12T02:32:06.133Z,13.10
2019-02-12T02:33:05.923Z,15.20
2019-02-12T02:36:05.914Z,13.60
2019-02-12T02:37:05.912Z,18.60
2019-02-12T02:38:06.402Z,14.80
2019-02-12T02:39:05.880Z,12.00
2019-02-12T02:41:05.877Z,11.60
2019-02-12T02:43:05.879Z,12.30
2019-02-12T02:44:05.858Z,14.50
2019-02-12T02:45:05.847Z,10.70
2019-02-12T02:46:05.843Z,12.70
2019-02-12T02:47:05.854Z,15.10
2019-02-12T02:48:06.041Z,15.70
2019-02-12T02:49:06.036Z,17.40
2019-02-12T02:50:05.810Z,16.10
2019-02-12T02:51:06.218Z,18.20
2019-02-12T02:52:06.017Z,13.10
2019-02-12T02:53:05.789Z,14.40
2019-02-12T02:55:05.791Z,16.70
2019-02-12T02:56:06.181Z,17.00
2019-02-12T02:58:05.772Z,17.50
2019-02-12T02:59:05.761Z,16.60
2019-02-12T03:01:05.757Z,20.10
2019-02-12T03:02:06.053Z,17.50
2019-02-12T03:04:06.037Z,19.30
2019-02-12T03:05:05.717Z,20.10
2019-02-12T03:06:06.017Z,19.10
2019-02-12T03:07:05.698Z,13.30
2019-02-12T03:10:05.716Z,15.30
2019-02-12T03:12:05.678Z,17.30
2019-02-12T03:14:05.657Z,13.30
2019-02-12T03:15:05.645Z,17.70
2019-02-12T03:16:06.349Z,20.20
2019-02-12T03:17:05.848Z,17.80
2019-02-12T03:18:05.681Z,20.70
2019-02-12T03:19:05.625Z,21.40
2019-02-12T03:20:05.605Z,22.60
2019-02-12T03:21:05.918Z,17.40
2019-02-12T03:22:06.022Z,19.40
2019-02-12T03:23:05.596Z,15.80
2019-02-12T03:24:05.821Z,18.40
2019-02-12T03:25:05.599Z,21.90
2019-02-12T03:26:05.566Z,16.70
2019-02-12T03:27:05.570Z,18.80
2019-02-12T03:28:05.869Z,17.90
2019-02-12T03:29:05.547Z,16.90
2019-02-12T03:30:05.761Z,18.40
2019-02-12T03:31:05.564Z,16.10
2019-02-12T03:32:06.266Z,15.50
2019-02-12T03:33:05.798Z,15.20
2019-02-12T03:35:05.523Z,14.60
2019-02-12T03:36:05.512Z,18.40
2019-02-12T03:37:05.725Z,16.70
2019-02-12T03:38:05.508Z,15.20
2019-02-12T03:39:05.510Z,16.50
2019-02-12T03:40:05.796Z,15.00
2019-02-12T03:41:05.507Z,22.90
2019-02-12T03:42:05.791Z,14.30
2019-02-12T03:43:05.874Z,17.80
2019-02-12T03:44:05.901Z,19.60
2019-02-12T03:47:06.387Z,15.40
2019-02-12T03:48:05.649Z,17.60
2019-02-12T03:49:05.854Z,15.30
2019-02-12T03:50:05.955Z,16.40
2019-02-12T03:53:05.627Z,15.60
2019-02-12T03:54:05.607Z,16.60
2019-02-12T03:56:05.390Z,19.90
2019-02-12T03:57:05.407Z,15.50
2019-02-12T03:58:05.378Z,18.90
2019-02-12T03:59:05.395Z,17.70
2019-02-12T04:00:05.371Z,12.90
2019-02-12T04:02:05.365Z,16.30
2019-02-12T04:03:05.362Z,18.70
2019-02-12T04:04:05.357Z,14.40
2019-02-12T04:05:05.324Z,19.20
2019-02-12T04:06:05.309Z,14.70
2019-02-12T04:09:05.527Z,15.90
2019-02-12T04:10:05.499Z,16.80
2019-02-12T04:12:05.291Z,15.50
2019-02-12T04:13:05.301Z,13.30
2019-02-12T04:14:05.500Z,12.90
2019-02-12T04:15:05.277Z,12.90
2019-02-12T04:16:05.280Z,16.00
2019-02-12T04:18:05.560Z,13.10
2019-02-12T04:19:05.446Z,16.30
2019-02-12T04:20:05.444Z,14.10
2019-02-12T04:21:05.856Z,17.10
2019-02-12T04:23:05.232Z,13.90
2019-02-12T04:24:05.432Z,15.00
2019-02-12T04:25:05.227Z,12.30
2019-02-12T04:26:05.249Z,11.10
2019-02-12T04:27:05.596Z,14.10
2019-02-12T04:28:05.191Z,9.80
2019-02-12T04:29:05.203Z,12.90
2019-02-12T04:30:05.199Z,12.70
2019-02-12T04:31:05.904Z,12.40
2019-02-12T04:32:05.161Z,13.50
2019-02-12T04:33:05.575Z,13.90
2019-02-12T04:34:05.370Z,18.00
2019-02-12T04:35:05.161Z,13.50
2019-02-12T04:37:05.137Z,17.80
2019-02-12T04:38:05.636Z,13.00
2019-02-12T04:39:05.109Z,12.50
2019-02-12T04:41:05.111Z,16.40
2019-02-12T04:42:05.098Z,19.30
2019-02-12T04:43:05.089Z,17.70
2019-02-12T04:45:05.294Z,15.10
2019-02-12T04:46:05.299Z,14.70
2019-02-12T04:47:05.279Z,13.00
2019-02-12T04:48:05.460Z,14.20
2019-02-12T04:49:06.004Z,14.80
2019-02-12T04:50:05.760Z,16.60
2019-02-12T04:51:05.059Z,15.60
2019-02-12T04:52:05.452Z,14.80
2019-02-12T04:54:05.238Z,14.30
2019-02-12T04:55:06.192Z,16.40
2019-02-12T04:56:05.009Z,14.30
2019-02-12T04:57:05.434Z,14.60
2019-02-12T04:58:05.211Z,13.80
2019-02-12T04:59:05.197Z,13.60
2019-02-12T05:00:05.381Z,11.30
2019-02-12T05:02:04.971Z,13.70
2019-02-12T05:03:05.168Z,14.40
2019-02-12T05:04:05.254Z,14.70
2019-02-12T05:08:05.349Z,16.70
2019-02-12T05:09:05.216Z,14.20
2019-02-12T05:10:05.127Z,15.50
2019-02-12T05:11:04.954Z,12.70
2019-02-12T05:12:04.908Z,15.60
2019-02-12T05:13:04.892Z,13.60
2019-02-12T05:14:05.110Z,16.80
2019-02-12T05:15:05.113Z,16.40
2019-02-12T05:16:05.391Z,16.80
2019-02-12T05:17:05.078Z,17.20
2019-02-12T05:18:04.883Z,12.80
2019-02-12T05:20:05.058Z,18.00
2019-02-12T05:21:04.866Z,14.90
2019-02-12T05:23:05.109Z,16.50
2019-02-12T05:27:04.812Z,17.30
2019-02-12T05:28:05.505Z,20.30
2019-02-12T05:29:04.824Z,17.60
2019-02-12T05:31:04.787Z,15.70
2019-02-12T05:32:04.998Z,15.30
2019-02-12T05:33:04.778Z,17.60
2019-02-12T05:34:04.969Z,15.40
2019-02-12T05:35:05.162Z,15.10
2019-02-12T05:36:04.940Z,14.70
2019-02-12T05:37:04.740Z,18.20
2019-02-12T05:38:05.153Z,18.40
2019-02-12T05:39:04.710Z,20.50
2019-02-12T05:40:04.739Z,18.30
2019-02-12T05:41:04.720Z,18.00
2019-02-12T05:42:04.707Z,20.30
2019-02-12T05:43:04.686Z,19.00
2019-02-12T05:44:04.682Z,20.70
2019-02-12T05:45:04.680Z,14.90
2019-02-12T05:46:04.700Z,14.50
2019-02-12T05:49:04.685Z,18.10
2019-02-12T05:51:05.241Z,17.10
2019-02-12T05:52:05.542Z,16.30
2019-02-12T05:53:06.618Z,16.40
2019-02-12T05:54:05.139Z,15.20
2019-02-12T05:55:04.602Z,18.40
2019-02-12T05:56:04.602Z,15.70
2019-02-12T05:57:04.830Z,15.70
2019-02-12T05:58:04.589Z,20.60
2019-02-12T05:59:04.968Z,13.80
2019-02-12T06:00:04.977Z,16.30
2019-02-12T06:01:04.773Z,14.60
2019-02-12T06:02:04.550Z,14.80
2019-02-12T06:03:04.857Z,17.60
2019-02-12T06:04:04.546Z,14.20
2019-02-12T06:06:04.541Z,13.10
2019-02-12T06:07:04.823Z,15.90
2019-02-12T06:08:04.528Z,16.40
2019-02-12T06:09:04.734Z,16.20
2019-02-12T06:10:04.510Z,16.90
2019-02-12T06:11:04.498Z,18.60
2019-02-12T06:12:04.692Z,17.20
2019-02-12T06:13:04.486Z,15.30
2019-02-12T06:17:04.447Z,16.80
2019-02-12T06:18:04.476Z,20.40
2019-02-12T06:19:05.048Z,19.50
2019-02-12T06:20:04.630Z,20.40
2019-02-12T06:21:04.448Z,17.80
2019-02-12T06:22:04.925Z,16.60
2019-02-12T06:23:04.446Z,18.40
2019-02-12T06:25:07.769Z,16.70
2019-02-12T06:26:04.375Z,19.60
2019-02-12T06:27:04.373Z,15.40
2019-02-12T06:28:04.394Z,20.50
2019-02-12T06:29:04.854Z,17.30
2019-02-12T06:30:04.577Z,19.20
2019-02-12T06:34:04.346Z,19.10
2019-02-12T06:35:04.547Z,21.80
2019-02-12T06:36:04.331Z,21.40
2019-02-12T06:37:04.515Z,18.20
2019-02-12T06:38:04.301Z,20.70
2019-02-12T06:39:04.900Z,23.00
2019-02-12T06:40:04.306Z,21.90
2019-02-12T06:41:04.303Z,18.50
2019-02-12T06:42:04.281Z,18.00
2019-02-12T06:43:04.609Z,17.50
2019-02-12T06:44:04.474Z,21.00
2019-02-12T06:45:04.456Z,20.10
2019-02-12T06:46:04.256Z,21.40
2019-02-12T06:47:04.245Z,21.50
2019-02-12T06:49:04.234Z,19.10
2019-02-12T06:51:04.446Z,18.20
2019-02-12T06:52:04.212Z,23.10
2019-02-12T06:53:12.249Z,23.30
2019-02-12T06:55:04.195Z,23.00
2019-02-12T06:56:04.179Z,22.20
2019-02-12T06:57:04.175Z,25.90
2019-02-12T06:58:04.160Z,25.40
2019-02-12T06:59:04.359Z,24.60
2019-02-12T07:00:04.151Z,25.80
2019-02-12T07:01:04.343Z,20.40
2019-02-12T07:03:04.129Z,26.30
2019-02-12T07:04:04.122Z,24.30
2019-02-12T07:05:04.328Z,22.60
2019-02-12T07:06:04.110Z,26.00
2019-02-12T07:07:04.103Z,26.00
2019-02-12T07:09:04.090Z,24.00
2019-02-12T07:10:04.400Z,24.00
2019-02-12T07:11:04.089Z,20.00
2019-02-12T07:12:04.090Z,24.70
2019-02-12T07:13:04.272Z,22.70
2019-02-12T07:14:04.271Z,22.70
2019-02-12T07:15:04.070Z,22.60
2019-02-12T07:16:04.071Z,24.40
2019-02-12T07:17:04.258Z,26.30
2019-02-12T07:18:04.338Z,21.20
2019-02-12T07:19:04.545Z,25.10
2019-02-12T07:21:04.021Z,23.90
2019-02-12T07:22:04.005Z,20.40
2019-02-12T07:24:04.191Z,20.30
2019-02-12T07:25:04.190Z,23.70
2019-02-12T07:26:04.188Z,21.10
2019-02-12T07:27:04.172Z,24.10
2019-02-12T07:28:03.961Z,24.60
2019-02-12T07:29:04.273Z,25.40
2019-02-12T07:30:04.144Z,26.90
2019-02-12T07:31:04.552Z,27.80
2019-02-12T07:32:03.940Z,27.20
2019-02-12T07:33:12.902Z,24.70
2019-02-12T07:34:04.131Z,22.80
2019-02-12T07:35:03.916Z,23.50
2019-02-12T07:36:03.911Z,28.10
2019-02-12T07:37:03.915Z,30.70
2019-02-12T07:38:04.091Z,26.90
2019-02-12T07:39:03.905Z,26.00
2019-02-12T07:40:04.086Z,25.20
2019-02-12T07:41:03.873Z,29.60
2019-02-12T07:42:03.876Z,34.50
2019-02-12T07:43:04.363Z,33.50
2019-02-12T07:44:03.855Z,27.90
2019-02-12T07:45:03.852Z,24.30
2019-02-12T07:46:04.252Z,23.00
2019-02-12T07:47:03.835Z,27.70
2019-02-12T07:49:03.845Z,27.00
2019-02-12T07:50:03.823Z,28.60
2019-02-12T07:51:04.104Z,27.50
2019-02-12T07:52:03.812Z,31.20
2019-02-12T07:53:04.020Z,30.80
2019-02-12T07:54:04.005Z,32.70
2019-02-12T07:56:04.190Z,31.10
2019-02-12T07:57:03.782Z,33.40
2019-02-12T07:58:03.787Z,25.10
2019-02-12T07:59:03.765Z,32.70
2019-02-12T08:00:04.177Z,34.10
2019-02-12T08:01:03.739Z,25.90
2019-02-12T08:03:03.745Z,29.90
2019-02-12T08:04:03.736Z,28.40
2019-02-12T08:05:04.434Z,28.50
2019-02-12T08:06:04.127Z,28.00
2019-02-12T08:07:03.690Z,28.20
2019-02-12T08:08:04.212Z,31.70
2019-02-12T08:09:04.007Z,32.10
2019-02-12T08:10:03.669Z,31.50
2019-02-12T08:11:03.666Z,33.90
2019-02-12T08:14:04.881Z,27.10
2019-02-12T08:15:03.871Z,27.60
2019-02-12T08:17:03.825Z,34.50
2019-02-12T08:18:03.633Z,36.60
2019-02-12T08:20:03.625Z,42.80
2019-02-12T08:21:05.028Z,33.60
2019-02-12T08:23:04.110Z,28.60
2019-02-12T08:24:03.596Z,33.70
2019-02-12T08:26:03.816Z,31.00
2019-02-12T08:27:03.592Z,36.80
2019-02-12T08:28:03.573Z,30.00
2019-02-12T08:29:03.772Z,35.40
2019-02-12T08:30:03.759Z,32.20
2019-02-12T08:32:03.747Z,32.80
2019-02-12T08:33:03.767Z,32.40
2019-02-12T08:34:03.577Z,34.10
2019-02-12T08:35:03.522Z,31.30
2019-02-12T08:37:03.739Z,27.60
2019-02-12T08:39:03.804Z,30.40
2019-02-12T08:40:03.527Z,33.10
2019-02-12T08:42:03.999Z,28.90
2019-02-12T08:45:03.492Z,31.20
2019-02-12T08:46:03.465Z,34.80
2019-02-12T08:47:03.649Z,32.20
2019-02-12T08:48:03.455Z,33.40
2019-02-12T08:51:04.377Z,28.90
2019-02-12T08:52:03.622Z,32.60
2019-02-12T08:53:03.430Z,34.80
2019-02-12T08:54:03.407Z,33.70
2019-02-12T08:55:03.416Z,33.60
2019-02-12T08:58:03.407Z,38.60
2019-02-12T08:59:03.376Z,34.80
2019-02-12T09:00:03.666Z,31.30
2019-02-12T09:01:03.381Z,33.90
2019-02-12T09:02:03.353Z,29.40
2019-02-12T09:05:03.545Z,33.20
2019-02-12T09:06:03.991Z,36.90
2019-02-12T09:07:03.636Z,35.50
2019-02-12T09:08:03.342Z,44.20
2019-02-12T09:09:04.038Z,34.70
2019-02-12T09:10:03.619Z,39.90
2019-02-12T09:11:03.738Z,34.20
2019-02-12T09:12:03.292Z,42.00
2019-02-12T09:13:03.297Z,42.20
2019-02-12T09:14:03.303Z,36.50
2019-02-12T09:16:03.270Z,39.50
2019-02-12T09:17:03.281Z,41.90
2019-02-12T09:18:03.261Z,42.40
2019-02-12T09:19:03.261Z,42.40
2019-02-12T09:20:03.274Z,45.70
2019-02-12T09:21:03.554Z,40.90
2019-02-12T09:22:03.253Z,43.40
2019-02-12T09:23:03.457Z,44.40
2019-02-12T09:25:03.951Z,43.40
2019-02-12T09:26:03.208Z,39.30
2019-02-12T09:28:03.400Z,43.70
2019-02-12T09:29:03.188Z,43.60
2019-02-12T09:31:03.499Z,41.80
2019-02-12T09:32:03.165Z,41.10
2019-02-12T09:33:03.390Z,45.00
2019-02-12T09:34:03.570Z,42.80
2019-02-12T09:36:03.167Z,45.40
2019-02-12T09:38:03.142Z,43.90
2019-02-12T09:39:03.142Z,42.10
2019-02-12T09:40:03.152Z,40.10
2019-02-12T09:42:03.629Z,44.10
2019-02-12T09:43:03.111Z,47.80
2019-02-12T09:44:03.301Z,42.40
2019-02-12T09:45:03.519Z,40.50
2019-02-12T09:46:03.114Z,49.10
2019-02-12T09:49:03.075Z,43.70
2019-02-12T09:51:03.060Z,41.30
2019-02-12T09:52:03.264Z,45.50
2019-02-12T09:53:03.062Z,45.70
2019-02-12T09:54:08.628Z,41.60
2019-02-12T09:55:03.063Z,43.20
2019-02-12T09:56:03.050Z,40.40
2019-02-12T09:59:03.237Z,43.50
2019-02-12T10:00:03.016Z,38.70
2019-02-12T10:01:03.011Z,39.40
2019-02-12T10:03:03.397Z,44.20
2019-02-12T10:04:03.016Z,43.00
2019-02-12T10:05:03.183Z,40.60
2019-02-12T10:07:03.599Z,39.50
2019-02-12T10:08:02.968Z,40.60
2019-02-12T10:09:02.969Z,43.10
2019-02-12T10:10:02.980Z,44.70
2019-02-12T10:11:03.136Z,43.80
2019-02-12T10:12:03.161Z,40.40
2019-02-12T10:13:03.147Z,48.30
2019-02-12T10:14:02.936Z,45.90
2019-02-12T10:15:03.146Z,41.50
2019-02-12T10:16:03.331Z,43.90
2019-02-12T10:17:03.122Z,43.40
2019-02-12T10:18:02.922Z,46.50
2019-02-12T10:19:02.924Z,46.30
2019-02-12T10:20:03.114Z,46.30
2019-02-12T10:21:02.888Z,44.40
2019-02-12T10:22:02.926Z,44.40
2019-02-12T10:23:02.894Z,45.00
2019-02-12T10:25:02.884Z,45.60
2019-02-12T10:27:03.168Z,42.00
2019-02-12T10:28:03.079Z,42.90
2019-02-12T10:29:02.878Z,40.80
2019-02-12T10:30:02.856Z,45.90
2019-02-12T10:32:08.746Z,39.40
2019-02-12T10:33:02.824Z,41.50
2019-02-12T10:34:03.023Z,43.80
2019-02-12T10:35:03.018Z,39.60
2019-02-12T10:37:02.808Z,42.70
2019-02-12T10:38:02.809Z,38.90
2019-02-12T10:40:03.000Z,44.80
2019-02-12T10:41:02.779Z,44.00
2019-02-12T10:42:02.785Z,47.30
2019-02-12T10:43:02.774Z,43.40
2019-02-12T10:44:02.799Z,46.80
2019-02-12T10:45:02.771Z,44.30
2019-02-12T10:46:02.961Z,42.80
2019-02-12T10:47:02.969Z,41.80
2019-02-12T10:48:02.947Z,46.90
2019-02-12T10:49:02.765Z,41.50
2019-02-12T10:50:03.365Z,47.10
2019-02-12T10:51:02.945Z,43.80
2019-02-12T10:52:02.725Z,44.70
2019-02-12T10:54:03.130Z,43.30
2019-02-12T10:55:02.727Z,41.30
2019-02-12T10:56:04.587Z,40.30
2019-02-12T10:57:02.716Z,40.80
2019-02-12T10:58:02.706Z,39.00
2019-02-12T10:59:02.910Z,43.70
2019-02-12T11:00:02.697Z,42.40
2019-02-12T11:02:02.702Z,43.40
2019-02-12T11:03:02.665Z,42.80
2019-02-12T11:04:02.687Z,41.30
2019-02-12T11:05:02.669Z,42.70
2019-02-12T11:06:02.653Z,39.20
2019-02-12T11:07:02.686Z,35.80
2019-02-12T11:08:02.669Z,35.50
2019-02-12T11:09:02.657Z,36.30
2019-02-12T11:12:02.830Z,36.10
2019-02-12T11:13:02.643Z,35.00
2019-02-12T11:14:03.032Z,36.00
2019-02-12T11:15:02.596Z,38.00
2019-02-12T11:16:02.602Z,34.80
2019-02-12T11:17:02.909Z,37.00
2019-02-12T11:18:02.819Z,37.40
2019-02-12T11:19:02.792Z,40.90
2019-02-12T11:21:02.778Z,32.30
2019-02-12T11:22:02.879Z,32.50
2019-02-12T11:23:02.774Z,34.60
2019-02-12T11:24:02.766Z,35.60
2019-02-12T11:25:02.972Z,33.20
2019-02-12T11:26:02.971Z,35.90
2019-02-12T11:28:02.747Z,32.10
2019-02-12T11:29:02.538Z,31.90
2019-02-12T11:30:02.742Z,35.20
2019-02-12T11:31:02.542Z,34.40
2019-02-12T11:32:03.259Z,34.10
2019-02-12T11:35:02.515Z,33.50
2019-02-12T11:37:02.518Z,32.80
2019-02-12T11:38:03.109Z,33.80
2019-02-12T11:39:02.485Z,33.10
2019-02-12T11:40:03.395Z,32.00
2019-02-12T11:41:02.509Z,33.10
2019-02-12T11:43:02.482Z,30.40
2019-02-12T11:44:02.486Z,37.90
2019-02-12T11:45:02.460Z,34.60
2019-02-12T11:46:03.887Z,32.60
2019-02-12T11:47:02.665Z,34.80
2019-02-12T11:48:02.455Z,35.10
2019-02-12T11:49:02.644Z,35.10
2019-02-12T11:50:02.446Z,36.50
2019-02-12T11:51:02.426Z,33.80
2019-02-12T11:52:02.620Z,38.50
2019-02-12T11:53:02.657Z,36.40
2019-02-12T11:55:02.645Z,34.10
2019-02-12T11:56:02.819Z,35.10
2019-02-12T11:57:02.399Z,29.20
2019-02-12T11:58:02.602Z,36.30
2019-02-12T11:59:02.377Z,30.80
2019-02-12T12:00:02.589Z,31.10
2019-02-12T12:01:02.872Z,34.20
2019-02-12T12:02:02.391Z,32.10
2019-02-12T12:03:02.581Z,35.80
2019-02-12T12:04:02.583Z,34.00
2019-02-12T12:05:02.553Z,35.30
2019-02-12T12:06:02.368Z,32.40
2019-02-12T12:07:03.053Z,33.20
2019-02-12T12:09:02.744Z,31.70
2019-02-12T12:11:02.324Z,31.70
2019-02-12T12:12:02.352Z,33.50
2019-02-12T12:13:02.937Z,33.20
2019-02-12T12:14:03.455Z,32.10
2019-02-12T12:15:02.310Z,35.00
2019-02-12T12:16:02.506Z,32.90
2019-02-12T12:17:02.521Z,33.00
2019-02-12T12:18:02.290Z,30.90
2019-02-12T12:20:02.304Z,32.20
2019-02-12T12:21:02.509Z,34.40
2019-02-12T12:23:02.495Z,32.50
2019-02-12T12:24:02.276Z,31.50
2019-02-12T12:25:02.276Z,32.50
2019-02-12T12:27:02.248Z,31.10
2019-02-12T12:28:02.264Z,29.30
2019-02-12T12:29:02.462Z,30.20
2019-02-12T12:30:02.439Z,25.60
2019-02-12T12:31:02.443Z,29.60
2019-02-12T12:32:02.851Z,29.70
2019-02-12T12:33:02.225Z,26.50
2019-02-12T12:34:02.618Z,30.70
2019-02-12T12:35:03.109Z,28.60
2019-02-12T12:37:02.202Z,29.80
2019-02-12T12:38:02.197Z,25.10
2019-02-12T12:39:02.397Z,33.20
2019-02-12T12:40:02.411Z,28.30
2019-02-12T12:43:02.374Z,26.90
2019-02-12T12:44:02.170Z,26.80
2019-02-12T12:45:02.167Z,28.10
2019-02-12T12:47:02.367Z,24.20
2019-02-12T12:48:02.383Z,26.60
2019-02-12T12:49:02.155Z,25.70
2019-02-12T12:50:02.134Z,25.50
2019-02-12T12:51:02.739Z,25.30
2019-02-12T12:52:02.131Z,26.60
2019-02-12T12:54:02.137Z,25.60
2019-02-12T12:55:02.129Z,27.30
2019-02-12T12:56:02.126Z,26.70
2019-02-12T12:57:02.329Z,22.50
2019-02-12T12:59:02.121Z,24.10
2019-02-12T13:00:02.295Z,25.40
2019-02-12T13:01:02.109Z,22.70
2019-02-12T13:02:02.298Z,26.80
2019-02-12T13:04:02.493Z,25.40
2019-02-12T13:05:02.721Z,25.60
2019-02-12T13:06:02.272Z,26.60
2019-02-12T13:07:02.080Z,22.60
2019-02-12T13:08:02.088Z,24.90
2019-02-12T13:09:02.079Z,23.80
2019-02-12T13:11:02.039Z,26.90
2019-02-12T13:13:02.248Z,22.80
2019-02-12T13:14:02.224Z,25.00
2019-02-12T13:16:03.029Z,23.10
2019-02-12T13:17:02.233Z,23.50
2019-02-12T13:18:02.283Z,24.60
2019-02-12T13:19:02.223Z,24.80
2019-02-12T13:20:02.017Z,21.70
2019-02-12T13:21:02.018Z,24.20
2019-02-12T13:22:02.715Z,22.90
2019-02-12T13:23:01.991Z,21.00
2019-02-12T13:24:02.178Z,21.80
2019-02-12T13:25:08.180Z,20.00
2019-02-12T13:26:02.192Z,18.00
2019-02-12T13:27:02.472Z,20.90
2019-02-12T13:28:02.683Z,21.80
2019-02-12T13:29:01.962Z,18.90
2019-02-12T13:33:02.142Z,21.30
2019-02-12T13:34:01.946Z,21.80
2019-02-12T13:35:02.145Z,21.50
2019-02-12T13:36:02.129Z,24.20
2019-02-12T13:39:02.106Z,19.60
2019-02-12T13:41:01.906Z,21.10
2019-02-12T13:42:02.412Z,19.40
2019-02-12T13:43:01.909Z,20.60
2019-02-12T13:44:02.519Z,19.20
2019-02-12T13:45:02.299Z,21.80
2019-02-12T13:46:02.106Z,19.60
2019-02-12T13:47:02.082Z,20.50
2019-02-12T13:49:02.184Z,21.40
2019-02-12T13:50:01.884Z,17.90
2019-02-12T13:51:01.892Z,17.40
2019-02-12T13:52:01.897Z,16.40
2019-02-12T13:53:01.858Z,17.50
2019-02-12T13:55:02.651Z,17.70
2019-02-12T13:56:02.038Z,18.80
2019-02-12T13:57:02.741Z,18.50
2019-02-12T13:58:01.831Z,15.70
2019-02-12T14:00:02.037Z,17.20
2019-02-12T14:01:02.029Z,18.00
2019-02-12T14:02:03.389Z,18.10
2019-02-12T14:05:02.100Z,16.00
2019-02-12T14:06:02.070Z,18.10
2019-02-12T14:07:01.785Z,18.50
2019-02-12T14:08:01.809Z,16.50
2019-02-12T14:09:01.790Z,14.40
2019-02-12T14:10:01.778Z,16.00
2019-02-12T14:11:01.963Z,18.90
2019-02-12T14:12:01.764Z,15.90
2019-02-12T14:13:01.763Z,16.50
2019-02-12T14:14:01.769Z,19.70
2019-02-12T14:16:01.750Z,16.70
2019-02-12T14:17:01.752Z,17.70
2019-02-12T14:18:02.267Z,15.40
2019-02-12T14:19:01.740Z,18.00
2019-02-12T14:21:01.733Z,17.40
2019-02-12T14:22:01.729Z,12.90
2019-02-12T14:24:01.698Z,16.40
2019-02-12T14:25:01.727Z,17.60
2019-02-12T14:26:01.702Z,16.20
2019-02-12T14:28:01.892Z,15.80
2019-02-12T14:29:01.681Z,19.80
2019-02-12T14:30:01.683Z,16.10
2019-02-12T14:31:01.692Z,19.90
2019-02-12T14:32:02.197Z,18.80
2019-02-12T14:33:01.679Z,17.60
2019-02-12T14:34:01.678Z,16.00
2019-02-12T14:35:01.874Z,18.90
2019-02-12T14:36:01.673Z,16.60
2019-02-12T14:38:01.652Z,18.20
2019-02-12T14:40:01.659Z,17.90
2019-02-12T14:41:01.646Z,19.60
2019-02-12T14:42:01.644Z,18.70
2019-02-12T14:44:02.025Z,16.80
2019-02-12T14:45:01.623Z,15.60
2019-02-12T14:46:01.825Z,19.40
2019-02-12T14:47:01.635Z,17.40
2019-02-12T14:48:01.615Z,15.90
2019-02-12T14:50:01.806Z,16.50
2019-02-12T14:51:01.997Z,16.50
2019-02-12T14:52:02.203Z,15.80
2019-02-12T14:53:02.001Z,15.60
2019-02-12T14:54:01.800Z,17.40
2019-02-12T14:55:02.491Z,17.60
2019-02-12T14:56:01.997Z,18.20
2019-02-12T14:57:01.771Z,15.80
2019-02-12T14:58:01.887Z,15.50
2019-02-12T15:00:01.774Z,15.00
2019-02-12T15:01:01.895Z,15.10
2019-02-12T15:02:01.776Z,19.30
2019-02-12T15:04:01.545Z,16.90
2019-02-12T15:05:01.850Z,15.50
2019-02-12T15:06:01.934Z,18.00
2019-02-12T15:07:01.545Z,16.70
2019-02-12T15:10:01.531Z,18.00
2019-02-12T15:12:01.738Z,12.90
2019-02-12T15:13:01.822Z,15.40
2019-02-12T15:14:01.493Z,16.30
2019-02-12T15:16:01.710Z,15.60
2019-02-12T15:18:01.982Z,14.70
2019-02-12T15:19:01.686Z,15.30
2019-02-12T15:20:01.697Z,13.50
2019-02-12T15:21:01.463Z,12.40
2019-02-12T15:23:01.460Z,13.60
2019-02-12T15:25:01.454Z,16.70
2019-02-12T15:26:01.441Z,16.40
2019-02-12T15:27:01.434Z,17.10
2019-02-12T15:28:01.633Z,16.20
2019-02-12T15:29:01.643Z,19.40
2019-02-12T15:30:01.424Z,15.50
2019-02-12T15:32:01.619Z,15.60
2019-02-12T15:33:01.803Z,15.50
2019-02-12T15:34:01.703Z,16.40
2019-02-12T15:35:01.606Z,15.60
2019-02-12T15:36:02.111Z,14.90
2019-02-12T15:37:01.396Z,17.50
2019-02-12T15:38:01.673Z,14.30
2019-02-12T15:39:01.385Z,18.20
2019-02-12T15:40:01.685Z,18.80
2019-02-12T15:41:01.682Z,17.50
2019-02-12T15:42:01.592Z,16.20
2019-02-12T15:44:01.369Z,16.20
2019-02-12T15:45:01.553Z,14.50
2019-02-12T15:46:01.343Z,13.40
2019-02-12T15:48:01.561Z,16.10
2019-02-12T15:49:01.335Z,16.00
2019-02-12T15:51:01.330Z,15.20
2019-02-12T15:52:01.327Z,15.80
2019-02-12T15:53:01.539Z,15.70